createdAt,value
2023-02-27T00:02:08.646Z,1.87
2023-02-27T00:04:36.995Z,2.47
2023-02-27T00:07:05.313Z,1.70
2023-02-27T00:09:33.891Z,2.10
2023-02-27T00:12:02.578Z,2.00
2023-02-27T00:14:30.953Z,1.60
2023-02-27T00:17:01.120Z,2.33
2023-02-27T00:19:34.204Z,2.20
2023-02-27T00:22:02.483Z,2.00
2023-02-27T00:24:31.270Z,1.83
2023-02-27T00:26:59.588Z,1.77
2023-02-27T00:29:27.938Z,2.20
2023-02-27T00:31:56.369Z,2.10
2023-02-27T00:34:26.317Z,1.93
2023-02-27T00:36:54.626Z,1.87
2023-02-27T00:39:22.919Z,2.10
2023-02-27T00:41:51.244Z,1.67
2023-02-27T00:44:19.817Z,1.73
2023-02-27T00:46:48.148Z,1.63
2023-02-27T00:49:16.623Z,1.80
2023-02-27T00:51:46.699Z,1.87
2023-02-27T00:54:15.018Z,1.60
2023-02-27T00:56:43.407Z,1.43
2023-02-27T00:59:11.776Z,1.80
2023-02-27T01:01:40.130Z,1.80
2023-02-27T01:04:08.838Z,1.60
2023-02-27T01:06:37.287Z,1.80
2023-02-27T01:09:07.366Z,1.43
2023-02-27T01:11:35.720Z,1.70
2023-02-27T01:14:07.379Z,1.90
2023-02-27T01:16:35.922Z,2.13
2023-02-27T01:19:04.477Z,2.10
2023-02-27T01:21:32.882Z,1.87
2023-02-27T01:24:01.729Z,1.80
2023-02-27T01:26:31.388Z,1.83
2023-02-27T01:28:59.812Z,1.83
2023-02-27T01:31:28.603Z,1.50
2023-02-27T01:33:57.108Z,1.80
2023-02-27T01:36:25.393Z,1.77
2023-02-27T01:38:53.721Z,2.20
2023-02-27T01:41:22.240Z,1.97
2023-02-27T01:44:00.535Z,1.97
2023-02-27T01:46:29.644Z,2.03
2023-02-27T01:49:01.769Z,2.00
2023-02-27T01:51:33.372Z,1.90
2023-02-27T01:54:03.897Z,1.93
2023-02-27T01:56:33.479Z,2.00
2023-02-27T01:59:05.479Z,1.73
2023-02-27T02:01:35.488Z,2.20
2023-02-27T02:04:11.181Z,1.80
2023-02-27T02:06:45.151Z,2.27
2023-02-27T02:09:15.036Z,2.10
2023-02-27T02:11:43.711Z,2.20
2023-02-27T02:14:13.392Z,2.00
2023-02-27T02:16:59.538Z,2.10
2023-02-27T02:19:48.165Z,2.37
2023-02-27T02:22:48.636Z,2.10
2023-02-27T02:25:54.312Z,2.00
2023-02-27T02:28:44.545Z,2.00
2023-02-27T02:31:44.307Z,2.00
2023-02-27T02:34:43.881Z,1.83
2023-02-27T02:37:52.847Z,2.10
2023-02-27T02:40:35.924Z,2.10
2023-02-27T02:43:11.256Z,1.77
2023-02-27T02:45:49.431Z,2.13
2023-02-27T02:48:27.304Z,2.23
2023-02-27T02:51:02.480Z,2.40
2023-02-27T02:53:37.696Z,2.33
2023-02-27T02:56:14.282Z,2.20
2023-02-27T02:58:51.528Z,2.17
2023-02-27T03:01:26.143Z,2.07
2023-02-27T03:04:00.004Z,2.13
2023-02-27T03:06:33.069Z,2.13
2023-02-27T03:09:07.073Z,2.13
2023-02-27T03:11:42.126Z,2.60
2023-02-27T03:14:15.898Z,2.27
2023-02-27T03:16:47.790Z,2.53
2023-02-27T03:19:22.205Z,2.30
2023-02-27T03:21:55.679Z,2.10
2023-02-27T03:24:28.779Z,2.30
2023-02-27T03:27:02.814Z,2.30
2023-02-27T03:29:38.329Z,2.27
2023-02-27T03:32:14.557Z,2.10
2023-02-27T03:34:44.607Z,2.03
2023-02-27T03:37:23.246Z,2.30
2023-02-27T03:39:56.252Z,2.20
2023-02-27T03:42:33.404Z,2.27
2023-02-27T03:45:07.234Z,2.60
2023-02-27T03:47:36.487Z,2.40
2023-02-27T03:50:05.399Z,2.10
2023-02-27T03:52:34.302Z,2.47
2023-02-27T03:55:08.254Z,2.13
2023-02-27T03:57:39.155Z,2.70
2023-02-27T04:00:12.796Z,2.57
2023-02-27T04:02:42.917Z,2.57
2023-02-27T04:05:11.425Z,2.40
2023-02-27T04:07:49.954Z,2.30
2023-02-27T04:10:29.930Z,2.83
2023-02-27T04:13:24.115Z,2.50
2023-02-27T04:16:23.838Z,2.40
2023-02-27T04:19:04.305Z,3.00
2023-02-27T04:21:39.707Z,1.60
2023-02-27T04:24:19.673Z,2.47
2023-02-27T04:26:52.203Z,2.50
2023-02-27T04:29:31.450Z,2.27
2023-02-27T04:32:05.640Z,2.60
2023-02-27T04:34:40.378Z,2.40
2023-02-27T04:37:12.436Z,2.90
2023-02-27T04:39:54.479Z,2.27
2023-02-27T04:42:25.810Z,2.50
2023-02-27T04:45:00.638Z,2.80
2023-02-27T04:47:33.522Z,3.13
2023-02-27T04:50:08.470Z,3.60
2023-02-27T04:52:40.532Z,6.50
2023-02-27T04:55:14.851Z,2.80
2023-02-27T04:57:49.370Z,2.70
2023-02-27T05:00:22.614Z,2.83
2023-02-27T05:02:54.335Z,3.00
2023-02-27T05:05:27.361Z,2.93
2023-02-27T05:07:59.846Z,2.93
2023-02-27T05:10:34.030Z,2.77
2023-02-27T05:13:07.480Z,2.70
2023-02-27T05:15:41.795Z,2.77
2023-02-27T05:18:12.401Z,2.77
2023-02-27T05:20:53.984Z,2.40
2023-02-27T05:23:31.641Z,2.70
2023-02-27T05:26:05.862Z,2.87
2023-02-27T05:28:40.599Z,2.37
2023-02-27T05:31:17.070Z,2.57
2023-02-27T05:33:53.091Z,2.67
2023-02-27T05:36:27.349Z,2.53
2023-02-27T05:39:00.255Z,2.60
2023-02-27T05:41:34.347Z,3.07
2023-02-27T05:44:06.150Z,2.80
2023-02-27T05:46:40.187Z,2.80
2023-02-27T05:49:13.907Z,3.70
2023-02-27T05:51:46.740Z,3.10
2023-02-27T05:54:21.898Z,2.70
2023-02-27T05:56:53.332Z,3.40
2023-02-27T05:59:28.769Z,3.00
2023-02-27T06:01:58.809Z,3.17
2023-02-27T06:04:27.197Z,2.77
2023-02-27T06:06:57.177Z,3.13
2023-02-27T06:09:25.539Z,3.20
2023-02-27T06:11:54.284Z,3.43
2023-02-27T06:14:22.546Z,3.07
2023-02-27T06:16:50.890Z,3.17
2023-02-27T06:19:20.619Z,3.43
2023-02-27T06:21:48.913Z,2.93
2023-02-27T06:24:17.242Z,3.57
2023-02-27T06:26:45.576Z,3.53
2023-02-27T06:29:17.472Z,3.33
2023-02-27T06:31:45.837Z,3.03
2023-02-27T06:34:14.186Z,3.37
2023-02-27T06:36:43.813Z,3.47
2023-02-27T06:39:12.164Z,3.40
2023-02-27T06:41:40.442Z,3.63
2023-02-27T06:44:08.727Z,3.17
2023-02-27T06:46:37.147Z,2.80
2023-02-27T06:49:05.560Z,3.10
2023-02-27T06:51:33.897Z,3.60
2023-02-27T06:54:03.604Z,3.50
2023-02-27T06:56:31.965Z,3.27
2023-02-27T06:59:01.294Z,3.40
2023-02-27T07:01:29.804Z,3.73
2023-02-27T07:03:58.133Z,3.07
2023-02-27T07:07:32.626Z,3.23
2023-02-27T07:09:16.206Z,3.50
2023-02-27T07:11:44.550Z,3.43
2023-02-27T07:14:15.121Z,3.77
2023-02-27T07:16:43.554Z,3.47
2023-02-27T07:19:12.111Z,3.50
2023-02-27T07:21:40.434Z,4.33
2023-02-27T07:24:09.980Z,4.00
2023-02-27T07:26:40.465Z,2.97
2023-02-27T07:29:09.832Z,2.70
2023-02-27T07:31:38.241Z,2.93
2023-02-27T07:34:06.772Z,3.37
2023-02-27T07:36:35.136Z,2.80
2023-02-27T07:39:05.145Z,3.00
2023-02-27T07:41:33.654Z,3.07
2023-02-27T07:44:03.374Z,2.67
2023-02-27T07:46:31.963Z,2.97
2023-02-27T07:49:00.363Z,3.07
2023-02-27T07:51:28.734Z,2.83
2023-02-27T07:53:57.570Z,3.03
2023-02-27T07:56:26.405Z,3.23
2023-02-27T07:58:54.969Z,2.97
2023-02-27T08:01:24.686Z,3.00
2023-02-27T08:03:53.071Z,2.57
2023-02-27T08:06:21.988Z,3.37
2023-02-27T08:08:50.972Z,2.90
2023-02-27T08:11:19.702Z,2.90
2023-02-27T08:14:03.583Z,2.80
2023-02-27T08:16:33.542Z,2.90
2023-02-27T08:19:02.329Z,2.97
2023-02-27T08:21:34.402Z,2.90
2023-02-27T08:24:02.711Z,3.00
2023-02-27T08:26:31.615Z,3.40
2023-02-27T08:28:59.973Z,2.90
2023-02-27T08:31:28.481Z,3.63
2023-02-27T08:34:09.355Z,2.83
2023-02-27T08:36:39.500Z,2.97
2023-02-27T08:39:08.701Z,3.27
2023-02-27T08:41:37.334Z,2.60
2023-02-27T08:44:06.055Z,2.90
2023-02-27T08:46:34.448Z,3.13
2023-02-27T08:49:04.491Z,2.80
2023-02-27T08:51:32.842Z,2.73
2023-02-27T08:54:01.217Z,3.23
2023-02-27T08:56:30.203Z,3.10
2023-02-27T08:58:58.794Z,4.40
2023-02-27T09:01:31.680Z,3.77
2023-02-27T09:04:00.622Z,5.43
2023-02-27T09:06:32.230Z,3.00
2023-02-27T09:09:01.723Z,2.83
2023-02-27T09:11:30.529Z,2.87
2023-02-27T09:13:59.009Z,2.60
2023-02-27T09:16:28.410Z,3.80
2023-02-27T09:18:57.044Z,2.33
2023-02-27T09:21:25.668Z,2.30
2023-02-27T09:23:55.651Z,2.70
2023-02-27T09:26:39.733Z,3.20
2023-02-27T09:29:09.259Z,3.80
2023-02-27T09:31:37.645Z,2.83
2023-02-27T09:34:05.939Z,3.20
2023-02-27T09:36:34.369Z,3.50
2023-02-27T09:39:04.954Z,2.67
2023-02-27T09:41:43.926Z,2.60
2023-02-27T09:44:36.459Z,2.30
2023-02-27T09:47:16.494Z,2.87
2023-02-27T09:49:53.655Z,2.57
2023-02-27T09:52:22.223Z,2.37
2023-02-27T09:54:52.174Z,2.40
2023-02-27T09:57:31.619Z,2.73
2023-02-27T10:00:05.261Z,3.00
2023-02-27T10:02:45.380Z,3.67
2023-02-27T10:05:23.748Z,3.30
2023-02-27T10:08:03.315Z,3.13
2023-02-27T10:10:45.085Z,3.53
2023-02-27T10:13:32.004Z,3.10
2023-02-27T10:16:01.374Z,3.90
2023-02-27T10:18:32.978Z,2.93
2023-02-27T10:21:04.558Z,3.13
2023-02-27T10:23:39.038Z,4.30
2023-02-27T10:26:15.303Z,3.30
2023-02-27T10:28:43.650Z,3.33
2023-02-27T10:31:21.202Z,3.53
2023-02-27T10:33:49.833Z,2.90
2023-02-27T10:36:32.898Z,4.30
2023-02-27T10:39:07.877Z,3.47
2023-02-27T10:41:40.030Z,3.93
2023-02-27T10:44:09.818Z,4.07
2023-02-27T10:46:38.839Z,4.77
2023-02-27T10:49:18.309Z,3.60
2023-02-27T10:51:48.032Z,5.00
2023-02-27T10:54:21.922Z,4.43
2023-02-27T10:56:54.784Z,4.93
2023-02-27T10:59:26.999Z,12.07
2023-02-27T11:01:57.790Z,6.03
2023-02-27T11:04:30.482Z,7.57
2023-02-27T11:07:01.223Z,10.03
2023-02-27T11:09:32.520Z,4.97
2023-02-27T11:12:23.641Z,6.57
2023-02-27T11:14:54.083Z,4.10
2023-02-27T11:17:25.773Z,3.70
2023-02-27T11:19:54.417Z,2.30
2023-02-27T11:22:24.768Z,2.60
2023-02-27T11:24:53.965Z,3.50
2023-02-27T11:27:26.726Z,3.60
2023-02-27T11:30:00.717Z,2.97
2023-02-27T11:32:37.307Z,2.00
2023-02-27T11:35:25.837Z,2.97
2023-02-27T11:37:56.380Z,2.40
2023-02-27T11:40:31.691Z,2.50
2023-02-27T11:43:04.974Z,2.40
2023-02-27T11:46:08.637Z,2.80
2023-02-27T11:48:30.435Z,2.47
2023-02-27T11:51:18.138Z,2.13
2023-02-27T11:54:22.193Z,2.20
2023-02-27T11:56:55.995Z,2.30
2023-02-27T11:59:31.950Z,2.93
2023-02-27T12:02:07.503Z,2.77
2023-02-27T12:04:45.925Z,2.97
2023-02-27T12:07:20.530Z,2.40
2023-02-27T12:09:57.731Z,2.67
2023-02-27T12:12:34.081Z,2.40
2023-02-27T12:15:15.962Z,2.67
2023-02-27T12:17:49.890Z,2.63
2023-02-27T12:20:31.309Z,2.50
2023-02-27T12:23:02.986Z,2.50
2023-02-27T12:25:46.486Z,3.00
2023-02-27T12:28:24.853Z,2.40
2023-02-27T12:31:05.398Z,3.30
2023-02-27T12:33:40.182Z,3.27
2023-02-27T12:36:12.740Z,2.63
2023-02-27T12:38:41.785Z,2.43
2023-02-27T12:41:36.647Z,3.00
2023-02-27T12:44:21.655Z,2.50
2023-02-27T12:46:58.329Z,2.60
2023-02-27T12:49:40.280Z,2.60
2023-02-27T12:52:20.440Z,2.50
2023-02-27T12:54:59.061Z,2.80
2023-02-27T12:57:37.202Z,2.70
2023-02-27T13:00:18.689Z,3.03
2023-02-27T13:03:01.976Z,2.90
2023-02-27T13:05:46.890Z,2.70
2023-02-27T13:08:26.668Z,2.10
2023-02-27T13:11:00.703Z,2.90
2023-02-27T13:13:35.282Z,2.93
2023-02-27T13:16:08.277Z,3.00
2023-02-27T13:18:45.617Z,3.07
2023-02-27T13:21:20.325Z,3.00
2023-02-27T13:23:59.517Z,3.37
2023-02-27T13:26:32.060Z,2.63
2023-02-27T13:29:01.464Z,2.80
2023-02-27T13:31:41.232Z,3.17
2023-02-27T13:34:19.193Z,2.57
2023-02-27T13:36:56.364Z,2.40
2023-02-27T13:40:00.008Z,3.00
2023-02-27T13:42:57.763Z,2.63
2023-02-27T13:45:53.617Z,3.73
2023-02-27T13:48:43.208Z,2.87
2023-02-27T13:51:46.681Z,2.77
2023-02-27T13:54:24.997Z,4.30
2023-02-27T13:57:31.917Z,19.83
2023-02-27T14:00:08.248Z,33.20
2023-02-27T14:02:59.943Z,5.33
2023-02-27T14:05:35.271Z,3.37
2023-02-27T14:08:15.003Z,2.30
2023-02-27T14:10:58.205Z,2.60
2023-02-27T14:13:59.706Z,4.00
2023-02-27T14:17:07.968Z,2.37
2023-02-27T14:19:57.383Z,2.77
2023-02-27T14:22:38.982Z,2.90
2023-02-27T14:25:27.653Z,2.30
2023-02-27T14:28:03.448Z,2.50
2023-02-27T14:30:40.150Z,3.23
2023-02-27T14:33:24.022Z,2.83
2023-02-27T14:36:01.865Z,2.80
2023-02-27T14:38:30.920Z,3.20
2023-02-27T14:41:14.470Z,3.77
2023-02-27T14:43:45.987Z,2.53
2023-02-27T14:46:23.964Z,2.80
2023-02-27T14:48:57.469Z,2.83
2023-02-27T14:51:27.488Z,2.93
2023-02-27T14:54:07.704Z,2.70
2023-02-27T14:56:37.464Z,2.50
2023-02-27T14:59:23.010Z,2.50
2023-02-27T15:01:52.221Z,2.70
2023-02-27T15:04:23.352Z,3.23
2023-02-27T15:06:53.250Z,2.83
2023-02-27T15:09:24.711Z,2.80
2023-02-27T15:12:03.898Z,2.70
2023-02-27T15:14:35.655Z,2.83
2023-02-27T15:17:05.054Z,2.77
2023-02-27T15:19:33.403Z,3.10
2023-02-27T15:22:05.496Z,2.63
2023-02-27T15:24:49.418Z,3.03
2023-02-27T15:27:23.196Z,4.23
2023-02-27T15:29:53.967Z,3.07
2023-02-27T15:32:28.620Z,4.57
2023-02-27T15:34:58.881Z,12.73
2023-02-27T15:37:31.212Z,12.00
2023-02-27T15:40:01.231Z,6.93
2023-02-27T15:42:35.089Z,5.60
2023-02-27T15:45:04.298Z,15.43
2023-02-27T15:47:34.079Z,12.60
2023-02-27T15:50:10.318Z,17.70
2023-02-27T15:52:43.078Z,10.10
2023-02-27T15:55:15.413Z,4.17
2023-02-27T15:58:00.605Z,2.93
2023-02-27T16:00:32.015Z,3.73
2023-02-27T16:03:01.476Z,2.93
2023-02-27T16:05:36.084Z,3.50
2023-02-27T16:08:16.185Z,3.13
2023-02-27T16:10:46.656Z,3.27
2023-02-27T16:13:30.508Z,3.27
2023-02-27T16:16:00.962Z,3.10
2023-02-27T16:18:34.569Z,3.20
2023-02-27T16:21:12.517Z,3.73
2023-02-27T16:23:41.005Z,4.00
2023-02-27T16:26:32.677Z,3.13
2023-02-27T16:29:04.786Z,4.03
2023-02-27T16:31:35.649Z,4.10
2023-02-27T16:34:16.027Z,5.10
2023-02-27T16:36:54.388Z,5.83
2023-02-27T16:39:22.825Z,4.97
2023-02-27T16:41:53.216Z,4.43
2023-02-27T16:44:24.436Z,3.73
2023-02-27T16:46:53.662Z,3.53
2023-02-27T16:49:24.140Z,3.27
2023-02-27T16:51:52.751Z,3.40
2023-02-27T16:54:21.283Z,4.20
2023-02-27T16:56:51.297Z,3.47
2023-02-27T16:59:33.005Z,7.10
2023-02-27T17:02:03.677Z,3.30
2023-02-27T17:04:32.504Z,3.77
2023-02-27T17:07:03.325Z,3.30
2023-02-27T17:09:32.504Z,3.90
2023-02-27T17:12:00.795Z,4.40
2023-02-27T17:14:30.993Z,3.93
2023-02-27T17:17:00.887Z,3.97
2023-02-27T17:19:29.752Z,3.27
2023-02-27T17:21:58.431Z,3.60
2023-02-27T17:24:27.189Z,3.93
2023-02-27T17:26:58.543Z,4.00
2023-02-27T17:29:27.268Z,3.83
2023-02-27T17:31:57.507Z,3.93
2023-02-27T17:34:26.198Z,4.70
2023-02-27T17:36:54.656Z,4.87
2023-02-27T17:39:28.601Z,4.10
2023-02-27T17:42:01.232Z,3.93
2023-02-27T17:44:38.128Z,3.70
2023-02-27T17:47:09.378Z,4.27
2023-02-27T17:49:37.936Z,4.40
2023-02-27T17:52:07.057Z,4.30
2023-02-27T17:54:43.629Z,3.70
2023-02-27T17:57:20.370Z,3.67
2023-02-27T17:59:50.373Z,3.40
2023-02-27T18:02:20.753Z,3.30
2023-02-27T18:04:51.508Z,3.27
2023-02-27T18:07:19.919Z,4.20
2023-02-27T18:09:49.475Z,3.30
2023-02-27T18:12:18.234Z,3.03
2023-02-27T18:14:46.604Z,3.00
2023-02-27T18:17:15.045Z,3.37
2023-02-27T18:19:45.559Z,3.27
2023-02-27T18:22:15.226Z,2.73
2023-02-27T18:24:43.551Z,2.90
2023-02-27T18:27:12.429Z,3.07
2023-02-27T18:29:40.999Z,2.33
2023-02-27T18:32:09.904Z,2.97
2023-02-27T18:34:40.004Z,3.30
2023-02-27T18:37:10.933Z,3.37
2023-02-27T18:39:42.332Z,2.83
2023-02-27T18:42:14.598Z,3.10
2023-02-27T18:44:42.927Z,3.10
2023-02-27T18:47:12.062Z,2.90
2023-02-27T18:49:40.502Z,3.13
2023-02-27T18:52:10.313Z,3.60
2023-02-27T18:54:40.828Z,2.60
2023-02-27T18:57:09.273Z,2.93
2023-02-27T18:59:37.932Z,2.80
2023-02-27T19:02:06.546Z,3.03
2023-02-27T19:04:34.952Z,2.20
2023-02-27T19:07:03.265Z,2.60
2023-02-27T19:09:33.750Z,3.03
2023-02-27T19:12:02.103Z,2.67
2023-02-27T19:14:30.469Z,2.50
2023-02-27T19:17:03.411Z,2.93
2023-02-27T19:19:33.204Z,2.60
2023-02-27T19:22:01.558Z,2.50
2023-02-27T19:24:30.547Z,2.60
2023-02-27T19:27:00.316Z,2.40
2023-02-27T19:29:28.800Z,2.70
2023-02-27T19:31:57.394Z,2.60
2023-02-27T19:34:25.998Z,2.60
2023-02-27T19:36:54.352Z,3.27
2023-02-27T19:39:23.319Z,2.60
2023-02-27T19:41:51.724Z,2.57
2023-02-27T19:44:21.527Z,2.67
2023-02-27T19:46:51.826Z,2.80
2023-02-27T19:49:20.878Z,2.73
2023-02-27T19:51:49.232Z,2.00
2023-02-27T19:54:17.625Z,2.70
2023-02-27T19:56:46.174Z,2.57
2023-02-27T19:59:18.277Z,2.50
2023-02-27T20:01:47.963Z,2.43
2023-02-27T20:04:17.606Z,2.10
2023-02-27T20:06:47.740Z,2.30
2023-02-27T20:09:18.040Z,2.40
2023-02-27T20:11:47.577Z,2.60
2023-02-27T20:14:17.521Z,2.83
2023-02-27T20:16:47.493Z,2.57
2023-02-27T20:19:17.619Z,2.13
2023-02-27T20:21:47.533Z,2.57
2023-02-27T20:24:18.215Z,2.40
2023-02-27T20:26:59.102Z,2.00
2023-02-27T20:29:28.544Z,2.70
2023-02-27T20:31:58.667Z,2.60
2023-02-27T20:34:27.609Z,2.40
2023-02-27T20:36:57.599Z,2.50
2023-02-27T20:39:28.007Z,2.47
2023-02-27T20:41:56.587Z,2.23
2023-02-27T20:44:24.968Z,2.20
2023-02-27T20:46:53.528Z,2.27
2023-02-27T20:49:26.003Z,2.00
2023-02-27T20:51:54.446Z,2.40
2023-02-27T20:54:22.747Z,2.53
2023-02-27T20:56:53.784Z,2.53
2023-02-27T20:59:25.183Z,2.53
2023-02-27T21:01:54.850Z,2.40
2023-02-27T21:04:42.060Z,2.70
2023-02-27T21:07:12.016Z,1.90
2023-02-27T21:09:40.488Z,2.40
2023-02-27T21:12:09.301Z,2.33
2023-02-27T21:14:37.926Z,3.10
2023-02-27T21:17:06.594Z,2.33
2023-02-27T21:19:36.945Z,2.20
2023-02-27T21:22:05.549Z,2.43
2023-02-27T21:24:34.893Z,2.80
2023-02-27T21:27:03.279Z,2.40
2023-02-27T21:29:31.681Z,2.40
2023-02-27T21:32:00.212Z,3.37
2023-02-27T21:34:29.641Z,2.40
2023-02-27T21:37:02.537Z,2.70
2023-02-27T21:39:30.997Z,2.27
2023-02-27T21:42:00.131Z,2.20
2023-02-27T21:44:29.642Z,2.33
2023-02-27T21:46:58.070Z,2.10
2023-02-27T21:49:28.507Z,2.13
2023-02-27T21:51:57.132Z,2.10
2023-02-27T21:54:26.933Z,1.83
2023-02-27T21:56:57.619Z,2.27
2023-02-27T21:59:26.017Z,2.27
2023-02-27T22:01:54.869Z,2.43
2023-02-27T22:04:23.728Z,2.40
2023-02-27T22:06:53.209Z,2.37
2023-02-27T22:09:22.346Z,2.37
2023-02-27T22:11:52.142Z,2.63
2023-02-27T22:14:20.485Z,2.60
2023-02-27T22:16:48.911Z,2.90
2023-02-27T22:19:19.803Z,2.80
2023-02-27T22:21:48.669Z,2.50
2023-02-27T22:24:16.986Z,2.90
2023-02-27T22:26:45.773Z,2.30
2023-02-27T22:29:17.118Z,2.43
2023-02-27T22:31:45.566Z,2.53
2023-02-27T22:34:19.342Z,2.03
2023-02-27T22:36:52.069Z,2.50
2023-02-27T22:39:20.881Z,2.13
2023-02-27T22:41:51.516Z,2.30
2023-02-27T22:44:21.238Z,2.03
2023-02-27T22:46:50.929Z,2.23
2023-02-27T22:49:23.117Z,2.07
2023-02-27T22:51:52.530Z,2.30
2023-02-27T22:54:22.634Z,2.07
2023-02-27T22:56:52.185Z,2.77
2023-02-27T22:59:23.328Z,2.10
2023-02-27T23:01:52.081Z,2.40
2023-02-27T23:04:22.154Z,2.63
2023-02-27T23:06:52.668Z,2.60
2023-02-27T23:09:24.146Z,2.60
2023-02-27T23:11:52.895Z,2.47
2023-02-27T23:14:23.210Z,2.60
2023-02-27T23:16:51.630Z,2.17
2023-02-27T23:19:22.747Z,2.23
2023-02-27T23:21:51.749Z,2.63
2023-02-27T23:24:21.331Z,2.33
2023-02-27T23:26:52.267Z,2.40
2023-02-27T23:29:22.768Z,2.20
2023-02-27T23:31:51.151Z,2.50
2023-02-27T23:34:19.677Z,2.60
2023-02-27T23:36:47.915Z,2.50
2023-02-27T23:39:16.194Z,2.90
2023-02-27T23:41:44.594Z,2.40
2023-02-27T23:44:30.502Z,2.53
2023-02-27T23:47:00.351Z,2.70
2023-02-27T23:49:28.688Z,2.33
2023-02-27T23:51:56.979Z,2.70
2023-02-27T23:54:25.430Z,2.60
2023-02-27T23:56:53.797Z,2.60
2023-02-27T23:59:22.112Z,2.73
